Hovedside
METAR-TAF:

METAR-TAF

Lufthavner :

Malé, Maldivene

Ibrahim Nasir internasjonale lufthavn

breddegrad: 04-12N, lengdegrad: 073-32E, høyde over havet: 2 m

Gjeldene værobservasjon

Denne rapporten ble laget for 32 minutter siden, klokken 18:00 UTC
Vind 8 kt fra Vest
Temperatur 30°C
Luftfuktighet 79%
Trykk 1011 hPa
Sikt 10 km eller mer
Få skyer i en høyde av 1800 ft

METAR: VRMM 241800Z 26008KT 9999 FEW018 30/26 Q1011 NOSIG

Tid: 23:32 (18:32 UTC)

Varsel

Denne rapporten ble laget for 1 time og 32 minutter siden, klokken 17:00 UTC
Varsel gyldig fra 24. klokken 18 UTC til 25. klokken 24 UTC
Vind 11 kt fra Vest
Sikt 10 km eller mer
Få skyer i en høyde av 1900 ft
Midlertidig
fra 24. klokken 22 UTC til 25. klokken 06 UTC
Sikt: 6000 m
Få skyer i en høyde av 1900 ft, Bygeskyer.
torden, lett regn

TAF: VRMM 241700Z 2418/2524 27011KT 9999 FEW019 TEMPO 2422/2506 6000 -TSRA FEW019CB

Værobservasjoner og værvarsel for over 4000 flyplasser (METAR- og TAF-rapporter).

Tilgjengelige stasjoner er representert av de røde og gule prikkene på kartet.

Hold musepekeren over prikken for å se navnet på stasjonen.

Klikk så for å se værobservasjoner og -varsler.

For å forandre kartet kan du klikke på den grønne knappen med svart kryss for å zoome inn, på den grønne knappen med strek for å zoome ut, eller på de grønne pilene for å se tilstøtende kart.


METAR-TAF: